Weather reports worldwide

Advertisment
Luchon/SA, France (7724): temperature & dewpoint: 20.05.2019 02:00:00 - 26.05.2019 02:00:00 (CEST)Luchon/SA, France (7724): wind speed & gusts: 20.05.2019 02:00:00 - 26.05.2019 02:00:00 (CEST)Luchon/SA, France (7724): wind direction: 20.05.2019 02:00:00 - 26.05.2019 02:00:00 (CEST)Luchon/SA, France (7724): precipitation: 20.05.2019 02:00:00 - 26.05.2019 02:00:00 (CEST)
Date & Time tt [°C] td [°C] ff [km/h] ff [kn] fx [km/h] fx [kn] dd rr [mm]
26.05.2019 02:00:00 - - - - - - - -
26.05.2019 01:00:00 10,7 9,9 4 2 8 4 NE 1,0
26.05.2019 00:00:00 11,0 10,2 2 1 8 4 SW 0,0
25.05.2019 23:00:00 11,1 10,2 0 0 8 4 N 0,0
25.05.2019 22:00:00 11,3 10,4 4 2 8 4 SE 0,0
25.05.2019 21:00:00 11,8 10,7 4 2 5 3 S 0,0
25.05.2019 20:00:00 12,0 10,6 0 0 9 5 N -
25.05.2019 19:00:00 12,2 10,6 8 4 9 5 S 0,4
25.05.2019 18:00:00 12,4 11,0 0 0 8 4 N 0,0
25.05.2019 17:00:00 12,1 10,5 4 2 8 4 S 0,2
25.05.2019 16:00:00 12,3 10,4 0 0 5 3 N 0,0
25.05.2019 15:00:00 11,8 10,5 2 1 8 4 NE 0,0
25.05.2019 14:00:00 11,6 10,5 2 1 9 5 S -
25.05.2019 13:00:00 11,2 10,3 5 3 9 5 NNE 3,0
25.05.2019 12:00:00 10,7 9,9 0 0 5 3 N 2,0
25.05.2019 11:00:00 10,5 9,7 0 0 5 3 N 3,0
25.05.2019 10:00:00 10,3 9,5 2 1 9 5 ESE 2,0
25.05.2019 09:00:00 10,2 9,4 4 2 8 4 NNE 1,0
25.05.2019 08:00:00 10,1 9,3 0 0 5 3 N -
25.05.2019 07:00:00 10,1 9,3 4 2 11 6 N 0,6
25.05.2019 06:00:00 10,1 9,3 2 1 8 4 NE 0,8
25.05.2019 05:00:00 10,3 9,5 4 2 9 5 NNE 1,0
25.05.2019 04:00:00 10,5 9,7 2 1 9 5 N 1,0
25.05.2019 03:00:00 10,6 9,8 4 2 9 5 N 3,0
25.05.2019 02:00:00 10,6 9,8 2 1 4 2 NE -
25.05.2019 01:00:00 10,6 9,8 2 1 5 3 NNE 1,0
25.05.2019 00:00:00 10,7 9,9 0 0 5 3 N 2,0
24.05.2019 23:00:00 10,7 9,8 0 0 4 2 N 1,0
24.05.2019 22:00:00 10,7 9,8 4 2 5 3 SSE 2,0
24.05.2019 21:00:00 11,0 9,7 0 0 8 4 N 0,6
24.05.2019 20:00:00 11,3 9,9 2 1 8 4 NE -
24.05.2019 19:00:00 11,5 9,9 4 2 8 4 N 0,2
24.05.2019 18:00:00 11,5 9,1 2 1 11 6 NE 0,4
24.05.2019 17:00:00 11,8 9,5 8 4 11 6 N 0,4
24.05.2019 16:00:00 12,0 9,9 4 2 9 5 NNE 0,0
24.05.2019 15:00:00 12,4 8,9 2 1 8 4 ENE 0,4
24.05.2019 14:00:00 12,1 8,2 2 1 8 4 E -
24.05.2019 13:00:00 11,7 8,4 2 1 11 6 SW 1,0
24.05.2019 12:00:00 10,8 8,6 8 4 15 8 S 2,0
24.05.2019 11:00:00 10,1 8,0 5 3 21 11 SSW 2,0
24.05.2019 10:00:00 10,3 7,7 9 5 22 12 S 2,0
24.05.2019 09:00:00 10,2 9,0 8 4 13 7 S 3,0
24.05.2019 08:00:00 10,8 9,9 0 0 8 4 N -
24.05.2019 07:00:00 10,9 10,0 4 2 11 6 ESE 5,0
24.05.2019 06:00:00 11,2 10,3 4 2 22 12 S 3,0
24.05.2019 05:00:00 11,4 10,3 13 7 31 17 NNE 0,4
24.05.2019 04:00:00 11,7 10,6 13 7 31 17 N 0,0
24.05.2019 03:00:00 11,8 10,9 15 8 29 16 N 0,0
24.05.2019 02:00:00 13,0 12,2 2 1 11 6 NE -
24.05.2019 01:00:00 13,2 12,1 5 3 15 8 ESE 0,0
24.05.2019 00:00:00 13,6 12,7 8 4 11 6 SSW 0,4
23.05.2019 23:00:00 13,9 12,9 4 2 9 5 SSE 0,8
23.05.2019 22:00:00 14,1 13,0 2 1 9 5 N 2,0
23.05.2019 21:00:00 14,5 13,0 4 2 8 4 NE 0,0
23.05.2019 20:00:00 15,3 13,0 4 2 18 10 N -
23.05.2019 19:00:00 16,0 12,7 8 4 35 19 SSW 2,0
23.05.2019 18:00:00 21,2 7,4 9 5 29 16 NW 0,0
23.05.2019 17:00:00 21,8 7,2 15 8 34 18 N 0,0
23.05.2019 16:00:00 22,6 7,6 16 9 37 20 N 0,0
23.05.2019 15:00:00 22,6 7,6 22 12 39 21 N 0,0
23.05.2019 14:00:00 23,0 7,1 18 10 35 19 N -
23.05.2019 13:00:00 22,5 5,8 18 10 34 18 N 0,0
23.05.2019 12:00:00 21,1 5,8 5 3 22 12 SSE 0,0
23.05.2019 11:00:00 19,2 7,9 2 1 9 5 SSE 0,0
23.05.2019 10:00:00 15,4 8,2 4 2 9 5 NE 0,0
23.05.2019 09:00:00 11,8 9,2 2 1 8 4 ENE 0,0
23.05.2019 08:00:00 7,6 7,0 0 0 4 2 N -
23.05.2019 07:00:00 5,9 5,2 2 1 4 2 S 0,0
23.05.2019 06:00:00 6,8 6,1 0 0 4 2 N 0,0
23.05.2019 05:00:00 7,6 6,7 0 0 5 3 N 0,0
23.05.2019 04:00:00 7,9 7,0 0 0 4 2 N 0,0
23.05.2019 03:00:00 8,9 7,7 0 0 5 3 N 0,0
23.05.2019 02:00:00 9,6 8,0 4 2 9 5 ENE -
23.05.2019 01:00:00 10,2 8,8 0 0 8 4 N 0,0
23.05.2019 00:00:00 11,3 9,4 0 0 5 3 N 0,0
22.05.2019 23:00:00 12,7 9,5 2 1 8 4 S 0,0
22.05.2019 22:00:00 14,3 9,9 0 0 5 3 N 0,0
22.05.2019 21:00:00 16,3 10,6 2 1 16 9 SSE 0,0
22.05.2019 20:00:00 18,6 7,7 8 4 28 15 N -
22.05.2019 19:00:00 19,4 7,2 13 7 34 18 NNW 0,0
22.05.2019 18:00:00 19,8 6,9 15 8 35 19 NNW 0,0
22.05.2019 17:00:00 21,1 7,7 21 11 41 22 N 0,0
22.05.2019 16:00:00 21,4 6,9 18 10 41 22 N 0,0
22.05.2019 15:00:00 20,8 7,8 21 11 41 22 N 0,0
22.05.2019 14:00:00 20,3 7,3 22 12 42 23 N -
22.05.2019 13:00:00 20,1 7,1 16 9 31 17 N 0,0
22.05.2019 12:00:00 19,0 8,3 11 6 24 13 N 0,0
22.05.2019 11:00:00 17,5 7,5 4 2 13 7 N 0,0
22.05.2019 10:00:00 14,1 9,7 2 1 8 4 SSW 0,0
22.05.2019 09:00:00 11,4 8,6 0 0 9 5 N 0,0
22.05.2019 08:00:00 10,0 8,3 4 2 9 5 NNE -
22.05.2019 07:00:00 9,6 8,0 0 0 8 4 N 0,0
22.05.2019 06:00:00 9,7 8,1 4 2 13 7 N 0,0
22.05.2019 05:00:00 10,4 8,8 2 1 4 2 NNW 0,0
22.05.2019 04:00:00 10,6 8,7 0 0 5 3 N 0,0
22.05.2019 03:00:00 10,9 8,6 4 2 8 4 NNE 0,0
22.05.2019 02:00:00 11,9 9,5 2 1 5 3 NE -
22.05.2019 01:00:00 12,6 9,4 0 0 4 2 N 0,0
22.05.2019 00:00:00 13,1 8,4 2 1 11 6 NNE 0,0
21.05.2019 23:00:00 13,3 8,6 5 3 15 8 NNE 0,0
21.05.2019 22:00:00 13,7 8,7 4 2 13 7 E 0,0
21.05.2019 21:00:00 14,3 8,3 4 2 22 12 NNE 0,0
21.05.2019 20:00:00 15,0 8,0 11 6 34 18 N -
21.05.2019 19:00:00 15,3 8,1 16 9 29 16 N 0,0
21.05.2019 18:00:00 15,5 7,3 16 9 31 17 N 0,0
21.05.2019 17:00:00 15,4 7,4 18 10 41 22 N 0,0
21.05.2019 16:00:00 15,9 7,9 22 12 48 26 N 0,0
21.05.2019 15:00:00 16,6 7,0 24 13 44 24 N 0,0
21.05.2019 14:00:00 17,5 7,5 22 12 44 24 N -
21.05.2019 13:00:00 17,0 6,2 21 11 35 19 N 0,0
21.05.2019 12:00:00 16,0 6,4 15 8 26 14 N 0,0
21.05.2019 11:00:00 15,0 7,0 9 5 18 10 NE 0,0
21.05.2019 10:00:00 13,0 7,2 4 2 9 5 SE 0,0
21.05.2019 09:00:00 10,7 8,6 4 2 8 4 S 0,0
21.05.2019 08:00:00 9,5 8,4 4 2 5 3 ESE -
21.05.2019 07:00:00 9,2 8,1 0 0 5 3 N 0,0
21.05.2019 06:00:00 9,2 8,1 0 0 4 2 N 0,0
21.05.2019 05:00:00 9,2 8,1 0 0 4 2 N 0,0
21.05.2019 04:00:00 9,2 8,0 0 0 5 3 N 0,0
21.05.2019 03:00:00 9,5 8,4 2 1 4 2 ESE 0,0
21.05.2019 02:00:00 9,5 8,4 2 1 5 3 SSE -
21.05.2019 01:00:00 9,7 8,8 2 1 5 3 SE 0,0
21.05.2019 00:00:00 9,9 9,0 0 0 9 5 N 0,0
20.05.2019 23:00:00 10,0 8,9 0 0 5 3 N 0,0
20.05.2019 22:00:00 10,4 9,0 0 0 8 4 N 0,0
20.05.2019 21:00:00 10,7 9,1 4 2 9 5 SE 0,4
20.05.2019 20:00:00 11,2 8,4 0 0 16 9 N -
20.05.2019 19:00:00 11,6 8,3 9 5 34 18 NNE 0,0
20.05.2019 18:00:00 13,7 5,8 16 9 31 17 N 0,0
20.05.2019 17:00:00 14,6 5,7 16 9 37 20 N 0,0
20.05.2019 16:00:00 14,3 5,4 21 11 34 18 N 0,0
20.05.2019 15:00:00 14,4 6,0 16 9 37 20 N 0,0
20.05.2019 14:00:00 14,9 7,4 15 8 28 15 N -
20.05.2019 13:00:00 12,9 6,5 5 3 15 8 N 0,0
20.05.2019 12:00:00 12,0 6,3 2 1 16 9 SE 0,0
20.05.2019 11:00:00 10,5 6,6 8 4 15 8 N 0,0
20.05.2019 10:00:00 8,7 7,1 2 1 8 4 E 0,0
20.05.2019 09:00:00 7,9 7,0 2 1 4 2 ENE 0,0
20.05.2019 08:00:00 7,5 6,8 2 1 4 2 N -
20.05.2019 07:00:00 7,3 6,6 2 1 5 3 E 0,0
20.05.2019 06:00:00 7,3 6,6 5 3 8 4 N 0,0
20.05.2019 05:00:00 7,2 6,5 4 2 8 4 S 0,0
20.05.2019 04:00:00 7,6 6,7 2 1 8 4 NNW 0,0
20.05.2019 03:00:00 7,8 6,9 4 2 8 4 SSW 0,0
20.05.2019 02:00:00 7,6 6,5 0 0 5 3 N -

tt = temperature
td = dewpoint
ff = wind speed
fx = gusts
dd = wind direction
rr = precipitation

Next stations